CheckWX is a tool to help pilots better visualize weather data.  It is not intended as a substitute for an official pre-flight weather briefing.

20:12:57 UTC

KTKX METAR
Kennett Memorial Airport
Kennett, Missouri, USA
Current

18 mins ago

KTKX 231955Z AUTO 22012G18KT 9SM BKN046 BKN050 26/15 A2999 RMK AO2
Observed
Apr-23 @ 19:55 UTC
Wind
  • 220° at 12 KTS
  • Gusting to 18 KTS
Visibility
9 SM
Flight Rules
VFR
Cloud Levels
  • Broken at 4,600' AGL
  • Broken at 5,000' AGL
Temperature
26°C / 79°F
Dewpoint
15°C / 59°F
Humidity
51%
Altimeter
29.99" Hg
Pressure
1015.62 hPa
Previous

38 mins ago

KTKX 231935Z AUTO 20011KT 8SM FEW043 SCT050 26/15 A3000 RMK AO2
Observed
Apr-23 @ 19:35 UTC
Wind
  • 200° at 11 KTS
Visibility
8 SM
Flight Rules
VFR
Cloud Levels
  • Few at 4,300' AGL
  • Scattered at 5,000' AGL
Temperature
26°C / 79°F
Dewpoint
15°C / 59°F
Humidity
51%
Altimeter
30" Hg
Pressure
1015.92 hPa
Previous

58 mins ago

KTKX 231915Z AUTO 19010KT 9SM CLR 26/15 A3000 RMK AO2
Observed
Apr-23 @ 19:15 UTC
Wind
  • 190° at 10 KTS
Visibility
9 SM
Flight Rules
VFR
Cloud Levels
  • Clear skies
Temperature
26°C / 79°F
Dewpoint
15°C / 59°F
Humidity
51%
Altimeter
30" Hg
Pressure
1015.92 hPa